Airfield :
LOGIN :

Register | Disclaimer

   EN    FR    IT 

 










Legend :    VFR   Marginal VFR   IFR   Intensive IFR   Very Intensive IFR
Visi :
Ceiling :
>= 8 km
>= 3000ft
5 to 8 km
1000 to 3000 ft
1500m to 5 km
500 to 1000 ft
800 to 1500m
200 to 500 ft
< 800m
< 200 ft
Symbols :   Thunderstorms  Fog  Heavy snow  Heavy precipitations  Wind > 20 kt
SIGMETs :     Misc.  Thunderstorms  Icing  Turbulence  Mountain Waves  Volcanic Ashes






- Airport Elevation : -15 ft
- IATA code : RTM


EHRD - Rotterdam Zestienhoven

CURRENT METAR :
  • 281855Z AUTO 34009KT 280V030 9999 FEW024 SCT038 BKN045 11/06 Q1021 NOSIG

EXPIRED METARs :
  • 281825Z AUTO 34008KT 290V030 9999 FEW047 12/06 Q1021 NOSIG
  • 281755Z AUTO 33009KT 280V010 9999 SCT030 SCT041 12/06 Q1021 NOSIG
  • 281725Z AUTO 33010KT 290V040 9999 FEW035 12/05 Q1022 NOSIG
  • 281655Z AUTO 34010KT 290V030 9999 FEW043 13/06 Q1022 NOSIG
  • 281625Z AUTO 34010KT 280V020 9999 NCD 13/05 Q1022 NOSIG

TAF TAF EHRD
Valid from the 28 at 18:00 until the 30 at 00:00 UTC


281716Z 2818/2924 33013KT 9999 SCT035
BECMG 2819/2821 33008KT
PROB40
TEMPO 2823/2912 7000 -SHRA SCT020TCU BKN025
BECMG 2908/2911 34014KT
BECMG 2917/2920 33006KT



MET'MAP, your aeronautical weather chart ! - Copyright ORBIFLY December 2007 - Disclaimer

ORBIFLY MET'MAP TEAM :

Programming & Development : Alexandra Zaïnal
Original concept : Baudouin d'Aumeries
Technical & hardware support : Manuel Goepfert
Assistance : Marc-Olivier Méhu

Contact : metmap@orbifly.com




SOURCES & CREDITS :

   NOAA